Time;durP1;ratioP1;P1;durP2;ratioP2;P2;SDS_P1;SDS_P2;PMS_P1;PMS_P2;Temp;Humidity;BMP_temperature;BMP_pressure;BME280_temperature;BME280_humidity;BME280_pressure;Samples;Min_cycle;Max_cycle;Signal;HPM_P1;HPM_P2
2020/12/21 00:01:42;;;;;;;14.80;5.00;;;7.50;79.10;;;;;;5039772;28;20931;-73
2020/12/21 00:04:08;;;;;;;18.60;4.40;;;7.50;77.30;;;;;;5041823;28;20460;-74
2020/12/21 00:06:34;;;;;;;15.70;5.07;;;7.40;77.80;;;;;;5030600;28;20893;-73
2020/12/21 00:09:00;;;;;;;14.67;4.73;;;7.50;77.10;;;;;;5030512;28;20386;-72
2020/12/21 00:11:52;;;;;;;14.55;4.00;;;7.40;78.00;;;;;;5030506;28;20725;-73
2020/12/21 00:14:18;;;;;;;17.13;5.22;;;7.20;79.00;;;;;;5025664;28;20503;-74
2020/12/21 00:16:46;;;;;;;18.67;4.95;;;7.20;80.40;;;;;;5033979;28;20411;-73
2020/12/21 00:19:13;;;;;;;14.37;4.97;;;7.20;80.60;;;;;;5034546;28;20382;-75
2020/12/21 00:21:39;;;;;;;18.27;5.85;;;7.20;80.50;;;;;;5034004;28;20413;-73
2020/12/21 00:24:05;;;;;;;16.60;5.37;;;7.20;80.10;;;;;;5034081;28;21001;-76
2020/12/21 00:26:31;;;;;;;18.13;5.78;;;7.00;81.30;;;;;;5034381;28;20383;-75
2020/12/21 00:28:57;;;;;;;17.63;5.95;;;7.10;81.00;;;;;;5034243;28;20426;-74
2020/12/21 00:31:25;;;;;;;17.40;6.25;;;7.00;80.80;;;;;;5033768;28;20403;-75
2020/12/21 00:33:50;;;;;;;22.95;6.20;;;6.90;80.60;;;;;;5034451;28;20394;-74
2020/12/21 00:36:16;;;;;;;17.42;6.07;;;6.80;82.60;;;;;;5034248;28;20418;-72
2020/12/21 00:38:43;;;;;;;22.33;6.80;;;6.80;82.80;;;;;;5033800;28;20808;-74
2020/12/21 00:41:12;;;;;;;24.58;7.20;;;6.70;83.50;;;;;;5034215;28;20449;-74
2020/12/21 00:43:38;;;;;;;19.38;5.20;;;6.70;83.90;;;;;;5034288;28;20402;-73
2020/12/21 00:46:03;;;;;;;23.93;6.00;;;6.70;84.20;;;;;;5034086;28;20748;-73
2020/12/21 00:48:30;;;;;;;12.00;5.03;;;6.60;84.30;;;;;;5015854;28;20394;-74
2020/12/21 00:50:56;;;;;;;18.02;4.90;;;6.60;84.60;;;;;;5033567;28;20402;-74
2020/12/21 00:53:22;;;;;;;17.88;4.75;;;6.70;85.00;;;;;;5033786;28;20383;-73
2020/12/21 00:55:47;;;;;;;17.10;5.13;;;6.70;83.30;;;;;;5033848;28;20871;-74
2020/12/21 00:58:13;;;;;;;17.73;4.17;;;6.70;82.60;;;;;;5033430;28;20942;-73
2020/12/21 01:00:38;;;;;;;10.10;4.00;;;6.70;83.30;;;;;;5033237;28;20480;-73
2020/12/21 01:03:04;;;;;;;15.73;4.33;;;6.60;83.20;;;;;;5053623;28;20542;-73
2020/12/21 01:05:29;;;;;;;15.70;4.23;;;6.60;84.00;;;;;;5035506;28;20797;-74
2020/12/21 01:07:55;;;;;;;16.73;4.60;;;6.50;83.80;;;;;;5015333;28;20429;-74
2020/12/21 01:10:20;;;;;;;16.43;4.50;;;6.60;83.40;;;;;;5033603;28;20391;-74
2020/12/21 01:12:46;;;;;;;13.25;4.15;;;6.50;84.10;;;;;;5033397;28;20395;-74
2020/12/21 01:15:11;;;;;;;15.77;3.70;;;6.50;83.60;;;;;;5033277;28;20473;-75
2020/12/21 01:17:37;;;;;;;15.20;4.30;;;6.60;83.20;;;;;;5032587;28;20979;-73
2020/12/21 01:20:05;;;;;;;11.27;4.53;;;6.50;83.40;;;;;;5033288;28;20455;-72
2020/12/21 01:22:30;;;;;;;16.50;4.85;;;6.50;83.00;;;;;;5033136;28;20390;-73
2020/12/21 01:24:56;;;;;;;11.83;3.80;;;6.50;82.70;;;;;;5033429;28;20383;-74
2020/12/21 01:27:21;;;;;;;9.13;4.40;;;6.60;82.10;;;;;;5032624;28;20395;-73
2020/12/21 01:29:47;;;;;;;10.20;4.30;;;6.50;82.10;;;;;;5032962;28;20409;-74
2020/12/21 01:32:12;;;;;;;19.77;4.60;;;6.60;83.20;;;;;;5033472;28;20419;-73
2020/12/21 01:34:38;;;;;;;13.53;3.83;;;6.60;82.70;;;;;;5015205;28;20391;-73
2020/12/21 01:37:04;;;;;;;24.87;5.20;;;6.50;82.90;;;;;;5033214;28;20430;-73
2020/12/21 01:39:29;;;;;;;13.68;4.82;;;6.40;82.10;;;;;;5032616;28;20979;-74
2020/12/21 01:41:55;;;;;;;19.13;5.18;;;6.30;83.60;;;;;;5033136;28;20878;-73
2020/12/21 01:44:20;;;;;;;15.47;4.80;;;6.20;84.50;;;;;;5032805;28;20876;-73
2020/12/21 01:46:46;;;;;;;16.13;4.90;;;6.10;85.70;;;;;;5033086;28;20939;-73
2020/12/21 01:49:12;;;;;;;14.98;4.90;;;6.10;85.90;;;;;;5032070;28;20403;-74
2020/12/21 01:51:37;;;;;;;16.10;4.93;;;6.10;85.00;;;;;;5032718;28;20462;-73
2020/12/21 01:54:03;;;;;;;17.30;5.00;;;6.10;85.70;;;;;;5032932;28;20852;-73
2020/12/21 01:56:29;;;;;;;15.88;5.38;;;6.00;86.40;;;;;;5031739;28;20426;-73
2020/12/21 01:58:55;;;;;;;16.60;5.75;;;6.00;86.70;;;;;;5032387;28;20868;-73
2020/12/21 02:01:20;;;;;;;19.10;5.30;;;5.90;87.00;;;;;;5038407;28;20870;-73
2020/12/21 02:03:48;;;;;;;17.80;5.50;;;6.00;86.70;;;;;;5052255;28;20462;-73
2020/12/21 02:06:13;;;;;;;14.82;4.88;;;5.90;86.00;;;;;;5045951;28;20479;-74
2020/12/21 02:08:40;;;;;;;15.77;5.00;;;5.90;87.00;;;;;;5014286;28;20817;-72
2020/12/21 02:11:05;;;;;;;12.30;5.10;;;5.90;86.50;;;;;;5032692;28;20385;-73
2020/12/21 02:13:31;;;;;;;18.83;6.10;;;5.90;87.10;;;;;;5032681;28;20466;-75
2020/12/21 02:15:58;;;;;;;14.35;5.90;;;5.90;87.20;;;;;;5032034;28;20736;-75
2020/12/21 02:18:24;;;;;;;22.58;5.97;;;5.90;87.50;;;;;;5032070;28;20430;-75
2020/12/21 02:20:49;;;;;;;17.73;4.63;;;5.80;87.30;;;;;;5032844;28;20418;-73
2020/12/21 02:23:16;;;;;;;17.67;5.47;;;5.80;87.60;;;;;;5032478;28;20391;-73
2020/12/21 02:25:42;;;;;;;19.00;5.40;;;5.90;87.20;;;;;;5032202;28;20880;-74
2020/12/21 02:28:07;;;;;;;19.52;5.95;;;5.90;87.30;;;;;;5031673;28;20438;-73
2020/12/21 02:30:33;;;;;;;14.05;5.22;;;5.90;87.20;;;;;;5032109;28;20406;-73
2020/12/21 02:32:58;;;;;;;18.13;5.32;;;5.90;86.70;;;;;;5031457;28;20399;-74
2020/12/21 02:35:24;;;;;;;20.65;5.93;;;5.90;86.20;;;;;;5032480;28;20713;-73
2020/12/21 02:37:49;;;;;;;20.58;6.10;;;5.80;86.80;;;;;;5030910;28;20505;-73
2020/12/21 02:40:15;;;;;;;19.17;6.30;;;5.80;86.90;;;;;;5031917;28;20386;-73
2020/12/21 02:42:41;;;;;;;17.50;5.73;;;5.80;86.60;;;;;;5032069;28;20494;-71
2020/12/21 02:45:06;;;;;;;13.80;6.63;;;5.70;87.30;;;;;;5034125;28;20399;-75
2020/12/21 02:47:32;;;;;;;19.73;6.60;;;5.80;86.80;;;;;;5032589;28;20437;-75
2020/12/21 02:49:57;;;;;;;17.87;6.40;;;5.80;86.40;;;;;;5041052;28;20861;-74
2020/12/21 02:52:23;;;;;;;15.53;6.40;;;5.80;86.90;;;;;;5041598;28;20394;-75
2020/12/21 02:54:49;;;;;;;16.90;5.70;;;5.80;87.10;;;;;;5038918;28;20395;-72
2020/12/21 02:57:15;;;;;;;17.95;6.43;;;5.70;87.30;;;;;;5034502;28;20812;-73
2020/12/21 02:59:41;;;;;;;22.25;6.60;;;5.70;87.90;;;;;;5021589;28;20718;-75
2020/12/21 03:02:06;;;;;;;18.92;6.60;;;5.70;88.30;;;;;;5035842;28;20388;-74
2020/12/21 03:04:33;;;;;;;14.07;5.95;;;5.70;88.20;;;;;;5060684;28;20472;-73
2020/12/21 03:07:00;;;;;;;16.13;6.27;;;5.70;88.70;;;;;;5047559;28;20411;-74
2020/12/21 03:09:26;;;;;;;23.30;6.10;;;5.60;88.20;;;;;;5039265;28;20395;-73
2020/12/21 03:11:51;;;;;;;15.40;6.35;;;5.70;88.40;;;;;;5037719;28;20391;-76
2020/12/21 03:14:17;;;;;;;13.10;6.40;;;5.70;87.40;;;;;;5039324;28;20407;-74
2020/12/21 03:16:42;;;;;;;13.77;6.10;;;5.70;87.00;;;;;;5038723;28;21373;-75
2020/12/21 03:19:08;;;;;;;17.87;6.50;;;5.70;87.00;;;;;;5039790;28;20899;-73
2020/12/21 03:21:33;;;;;;;14.87;5.67;;;5.60;87.30;;;;;;5038254;28;20898;-77
2020/12/21 03:23:59;;;;;;;18.93;6.63;;;5.70;87.30;;;;;;5038688;28;20475;-74
2020/12/21 03:26:26;;;;;;;17.87;6.10;;;5.70;86.80;;;;;;5037892;28;20482;-74
2020/12/21 03:28:51;;;;;;;19.73;6.10;;;5.70;87.10;;;;;;5030763;28;20390;-73
2020/12/21 03:31:17;;;;;;;20.95;6.50;;;5.70;87.60;;;;;;5030973;28;20390;-73
2020/12/21 03:33:42;;;;;;;19.52;6.07;;;5.70;88.20;;;;;;5030615;28;20383;-76
2020/12/21 03:36:08;;;;;;;20.10;6.10;;;5.70;87.30;;;;;;5030543;28;20477;-73
2020/12/21 03:38:33;;;;;;;20.20;5.30;;;5.70;86.50;;;;;;5030059;28;20387;-74
2020/12/21 03:40:59;;;;;;;16.00;5.65;;;5.70;86.40;;;;;;5030842;28;20441;-74
2020/12/21 03:43:24;;;;;;;16.27;5.80;;;5.70;86.70;;;;;;5030498;28;20395;-74
2020/12/21 03:45:50;;;;;;;13.93;5.95;;;5.60;86.90;;;;;;5030908;28;20390;-73
2020/12/21 03:48:16;;;;;;;12.43;4.80;;;5.70;87.90;;;;;;5029986;28;20399;-73
2020/12/21 03:50:41;;;;;;;16.30;5.73;;;5.60;87.30;;;;;;5029583;28;20398;-74
2020/12/21 03:53:07;;;;;;;17.67;4.90;;;5.70;87.20;;;;;;5030462;28;20383;-74
2020/12/21 03:55:33;;;;;;;20.93;6.17;;;5.70;86.90;;;;;;5030431;28;20440;-74
2020/12/21 03:57:59;;;;;;;15.07;5.72;;;5.80;85.40;;;;;;5030242;28;20414;-73
2020/12/21 04:00:24;;;;;;;25.40;6.00;;;5.80;85.50;;;;;;5029927;28;20474;-73
2020/12/21 04:02:50;;;;;;;14.17;5.47;;;5.70;86.00;;;;;;5030486;28;20389;-74
2020/12/21 04:05:15;;;;;;;17.07;5.40;;;5.70;86.30;;;;;;5030396;28;20387;-73
2020/12/21 04:07:41;;;;;;;12.63;5.40;;;5.70;87.00;;;;;;5032334;28;20395;-72
2020/12/21 04:10:07;;;;;;;13.27;5.20;;;5.70;87.30;;;;;;5033295;28;20797;-74
2020/12/21 04:12:34;;;;;;;15.07;5.32;;;5.70;86.80;;;;;;5034177;28;20454;-74
2020/12/21 04:15:00;;;;;;;12.68;5.90;;;5.70;86.80;;;;;;5034773;28;20457;-73
2020/12/21 04:17:26;;;;;;;14.02;5.10;;;5.60;87.70;;;;;;5032536;28;20418;-75
2020/12/21 04:19:51;;;;;;;14.83;5.43;;;5.60;88.60;;;;;;5032350;28;20856;-73
2020/12/21 04:22:17;;;;;;;23.53;6.47;;;5.60;88.10;;;;;;5031810;28;20387;-73
2020/12/21 04:24:42;;;;;;;16.67;5.40;;;5.60;88.00;;;;;;5031529;28;20478;-73
2020/12/21 04:27:08;;;;;;;21.57;6.17;;;5.70;86.20;;;;;;5032410;28;20478;-75
2020/12/21 04:29:33;;;;;;;13.70;4.53;;;5.70;86.60;;;;;;5032555;28;20945;-74
2020/12/21 04:31:59;;;;;;;15.50;5.20;;;5.70;86.20;;;;;;5033669;28;20433;-74
2020/12/21 04:34:25;;;;;;;16.15;5.47;;;5.70;87.00;;;;;;5033279;28;20379;-74
2020/12/21 04:36:52;;;;;;;17.05;5.85;;;5.70;86.40;;;;;;5032718;28;20893;-73
2020/12/21 04:39:17;;;;;;;18.20;5.93;;;5.70;86.90;;;;;;5033168;28;20394;-74
2020/12/21 04:41:56;;;;;;;22.42;7.22;;;5.70;86.40;;;;;;5035252;28;20753;-73
2020/12/21 04:44:23;;;;;;;18.33;5.95;;;5.70;87.40;;;;;;5029543;28;20407;-74
2020/12/21 04:46:52;;;;;;;24.23;5.82;;;5.60;88.20;;;;;;5030264;28;20764;-74
2020/12/21 04:49:18;;;;;;;25.10;6.70;;;5.70;87.30;;;;;;5012567;28;20393;-72
2020/12/21 04:51:46;;;;;;;15.38;5.82;;;5.70;88.00;;;;;;5012250;28;20395;-74
2020/12/21 04:54:12;;;;;;;24.35;7.35;;;5.70;88.20;;;;;;5030145;28;20899;-73
2020/12/21 04:56:40;;;;;;;14.32;6.50;;;5.70;87.40;;;;;;5029294;28;20472;-74
2020/12/21 04:59:05;;;;;;;21.70;7.25;;;5.70;87.50;;;;;;5029750;28;20391;-72
2020/12/21 05:01:31;;;;;;;16.83;5.80;;;5.70;87.90;;;;;;5030726;28;20443;-72
2020/12/21 05:03:57;;;;;;;18.38;6.03;;;5.80;88.80;;;;;;5033599;28;20772;-72
2020/12/21 05:06:23;;;;;;;14.75;5.57;;;5.90;87.80;;;;;;5033420;28;20884;-72
2020/12/21 05:09:03;;;;;;;17.63;5.35;;;6.00;86.00;;;;;;5033116;28;20403;-73
2020/12/21 05:11:29;;;;;;;18.57;6.27;;;6.00;85.00;;;;;;5033120;28;20401;-73
2020/12/21 05:14:10;;;;;;;16.00;6.60;;;6.10;84.70;;;;;;5033422;28;20387;-73
2020/12/21 05:16:36;;;;;;;13.88;6.18;;;6.10;83.80;;;;;;5033113;28;20923;-74
2020/12/21 05:19:03;;;;;;;19.17;6.53;;;6.10;83.40;;;;;;5032999;28;20383;-73
2020/12/21 05:21:30;;;;;;;25.48;6.85;;;6.10;83.80;;;;;;5033054;28;20389;-72
2020/12/21 05:24:00;;;;;;;16.67;6.00;;;6.20;83.20;;;;;;5033041;28;20406;-73
2020/12/21 05:26:30;;;;;;;21.38;6.68;;;6.20;82.60;;;;;;5031852;28;20439;-74
2020/12/21 05:28:57;;;;;;;22.00;5.53;;;6.20;83.10;;;;;;5032628;28;20876;-72
2020/12/21 05:31:22;;;;;;;18.33;5.95;;;6.20;82.50;;;;;;5032957;28;20398;-73
2020/12/21 05:33:48;;;;;;;17.83;5.67;;;6.30;82.00;;;;;;5032796;28;20467;-73
2020/12/21 05:36:13;;;;;;;16.53;6.13;;;6.30;81.40;;;;;;5016809;28;20419;-73
2020/12/21 05:38:40;;;;;;;17.37;7.27;;;6.30;81.40;;;;;;5037292;28;20418;-75
2020/12/21 05:41:12;;;;;;;15.55;5.35;;;6.30;81.50;;;;;;5036942;28;20830;-74
2020/12/21 05:43:38;;;;;;;19.92;6.25;;;6.40;81.70;;;;;;5038474;28;20387;-74
2020/12/21 05:46:06;;;;;;;12.93;4.75;;;6.40;80.60;;;;;;5038453;28;20375;-75
2020/12/21 05:48:43;;;;;;;18.55;6.28;;;6.60;78.60;;;;;;5039685;28;20458;-74
2020/12/21 05:51:11;;;;;;;16.30;5.17;;;6.50;78.50;;;;;;5040532;28;20881;-75
2020/12/21 05:53:43;;;;;;;16.70;4.53;;;6.60;77.90;;;;;;5039360;28;20402;-74
2020/12/21 05:56:10;;;;;;;12.60;4.30;;;6.50;77.70;;;;;;5021061;28;20381;-74
2020/12/21 05:58:37;;;;;;;15.25;4.93;;;6.50;78.10;;;;;;5016766;28;20389;-73
2020/12/21 06:01:10;;;;;;;13.40;5.00;;;6.50;78.10;;;;;;5017120;28;20443;-74
2020/12/21 06:03:48;;;;;;;18.30;6.30;;;6.40;78.00;;;;;;5016437;28;20389;-72
2020/12/21 06:06:22;;;;;;;17.08;5.30;;;6.40;79.10;;;;;;5022137;28;20390;-76
2020/12/21 06:08:50;;;;;;;19.10;5.55;;;6.30;79.80;;;;;;5036821;28;20418;-75
2020/12/21 06:11:24;;;;;;;20.30;5.25;;;6.30;80.60;;;;;;5038332;28;20728;-76
2020/12/21 06:13:57;;;;;;;19.85;6.32;;;6.40;79.10;;;;;;5035359;28;20379;-75
2020/12/21 06:16:24;;;;;;;9.50;4.05;;;6.30;80.00;;;;;;5037136;28;20376;-75
2020/12/21 06:18:59;;;;;;;13.85;4.80;;;6.50;79.00;;;;;;5039785;28;20387;-75
2020/12/21 06:21:32;;;;;;;15.30;5.25;;;6.40;78.70;;;;;;5040057;28;20393;-73
2020/12/21 06:23:58;;;;;;;14.20;4.90;;;6.40;79.60;;;;;;5038047;28;20836;-74
2020/12/21 06:26:35;;;;;;;13.50;5.13;;;6.40;79.60;;;;;;5034896;28;20486;-75
2020/12/21 06:29:03;;;;;;;9.90;4.60;;;6.50;78.90;;;;;;5034983;28;20394;-74
2020/12/21 06:32:01;;;;;;;13.70;4.38;;;6.50;79.10;;;;;;5036515;28;20442;-73
2020/12/21 06:34:27;;;;;;;14.23;4.95;;;6.50;79.40;;;;;;5019315;28;20399;-74
2020/12/21 06:37:00;;;;;;;14.50;4.67;;;6.50;79.00;;;;;;5037495;28;20407;-75
2020/12/21 06:39:26;;;;;;;14.90;4.57;;;6.50;79.10;;;;;;5036433;28;20509;-74
2020/12/21 06:42:15;;;;;;;14.95;4.95;;;6.60;78.10;;;;;;5031442;28;20466;-76
2020/12/21 06:44:42;;;;;;;15.18;4.80;;;6.50;78.30;;;;;;5031357;28;20403;-73
2020/12/21 06:47:09;;;;;;;14.25;4.70;;;6.50;78.60;;;;;;5031012;28;20852;-72
2020/12/21 06:49:35;;;;;;;14.68;4.90;;;6.60;78.60;;;;;;5031228;28;20872;-72
2020/12/21 06:52:01;;;;;;;12.77;4.45;;;6.50;77.90;;;;;;5031332;28;20434;-71
2020/12/21 06:54:27;;;;;;;14.38;4.63;;;6.50;78.80;;;;;;5029885;28;20395;-72
2020/12/21 06:56:52;;;;;;;13.60;4.20;;;6.50;78.80;;;;;;5030360;28;20477;-73
2020/12/21 06:59:26;;;;;;;14.73;4.60;;;6.60;78.70;;;;;;5031201;28;20418;-72
2020/12/21 07:01:53;;;;;;;11.48;5.20;;;6.60;77.90;;;;;;5031256;28;20950;-72
2020/12/21 07:04:20;;;;;;;14.38;4.90;;;6.60;78.70;;;;;;5030966;28;20844;-72
2020/12/21 07:06:47;;;;;;;12.35;4.80;;;6.70;77.40;;;;;;5030757;28;20395;-73
2020/12/21 07:09:14;;;;;;;14.85;4.38;;;6.70;77.70;;;;;;5012375;28;20386;-71
2020/12/21 07:11:42;;;;;;;8.93;4.70;;;6.70;77.70;;;;;;5030858;28;20453;-74
2020/12/21 07:14:08;;;;;;;15.13;4.47;;;6.70;77.10;;;;;;5030623;28;20460;-71
2020/12/21 07:16:34;;;;;;;12.05;4.50;;;6.70;77.80;;;;;;5030729;28;20407;-74
2020/12/21 07:19:00;;;;;;;10.65;4.40;;;6.70;79.20;;;;;;5030699;28;20409;-76
2020/12/21 07:21:26;;;;;;;18.03;4.27;;;6.60;78.40;;;;;;5030888;28;20865;-73
2020/12/21 07:23:51;;;;;;;14.80;4.43;;;6.70;78.50;;;;;;5029783;28;20398;-74
2020/12/21 07:26:17;;;;;;;12.20;4.30;;;6.70;77.90;;;;;;5030813;28;20434;-73
2020/12/21 07:28:47;;;;;;;115.85;61.58;;;6.80;77.70;;;;;;5030044;28;20383;-75
2020/12/21 07:31:18;;;;;;;47.47;19.17;;;6.90;77.40;;;;;;5030602;28;20497;-75
2020/12/21 07:33:58;;;;;;;93.32;45.17;;;7.00;76.50;;;;;;5030214;28;20417;-73
2020/12/21 07:36:27;;;;;;;43.58;22.13;;;7.00;76.80;;;;;;5029819;28;20414;-74
2020/12/21 07:39:03;;;;;;;85.15;43.28;;;7.20;77.90;;;;;;5029916;28;20699;-75
2020/12/21 07:41:32;;;;;;;27.48;12.70;;;7.30;77.50;;;;;;5030283;28;20392;-74
2020/12/21 07:44:22;;;;;;;31.42;15.80;;;7.40;74.50;;;;;;5029820;28;20426;-74
2020/12/21 07:47:03;;;;;;;22.23;8.50;;;7.40;73.70;;;;;;5016231;28;20528;-74
2020/12/21 07:49:33;;;;;;;18.23;7.23;;;7.40;73.00;;;;;;5029912;28;20406;-74
2020/12/21 07:52:01;;;;;;;22.27;11.30;;;7.40;72.30;;;;;;5029888;28;20442;-74
2020/12/21 07:54:28;;;;;;;63.33;30.93;;;7.50;71.20;;;;;;5030439;28;20473;-74
2020/12/21 07:57:01;;;;;;;26.30;14.57;;;7.50;71.80;;;;;;5032287;28;20439;-75
2020/12/21 07:59:27;;;;;;;17.45;6.05;;;7.60;70.40;;;;;;5018586;28;20383;-75
2020/12/21 08:02:00;;;;;;;22.73;8.85;;;7.60;69.70;;;;;;5036807;28;20459;-75
2020/12/21 08:04:27;;;;;;;18.40;5.70;;;7.70;69.50;;;;;;5012435;28;20406;-74
2020/12/21 08:06:54;;;;;;;29.92;14.70;;;7.80;67.80;;;;;;5029517;28;20410;-74
2020/12/21 08:09:19;;;;;;;30.93;14.57;;;7.80;67.80;;;;;;5030034;28;20391;-74
2020/12/21 08:11:45;;;;;;;15.85;6.75;;;7.80;67.60;;;;;;5030232;28;20394;-74
2020/12/21 08:14:16;;;;;;;20.63;8.75;;;8.00;66.30;;;;;;5030166;28;20804;-77
2020/12/21 08:16:42;;;;;;;15.38;5.47;;;8.00;65.30;;;;;;5029783;28;20771;-73
2020/12/21 08:19:13;;;;;;;69.60;39.13;;;8.00;64.50;;;;;;5012381;28;20384;-74
2020/12/21 08:21:39;;;;;;;34.38;18.35;;;8.00;66.20;;;;;;5029637;28;20870;-73
2020/12/21 08:24:05;;;;;;;12.27;5.05;;;8.00;66.40;;;;;;5011888;28;20738;-73
2020/12/21 08:26:35;;;;;;;12.90;4.80;;;8.10;65.00;;;;;;5030104;28;20375;-74
2020/12/21 08:29:01;;;;;;;10.60;4.10;;;8.10;64.20;;;;;;5029446;28;20421;-74
2020/12/21 08:31:27;;;;;;;10.57;3.65;;;8.10;64.00;;;;;;5027971;28;20509;-74
2020/12/21 08:33:57;;;;;;;10.20;3.67;;;8.20;62.50;;;;;;5029344;28;20486;-74
2020/12/21 08:36:34;;;;;;;14.55;4.43;;;8.20;62.80;;;;;;5030528;28;20398;-73
2020/12/21 08:39:16;;;;;;;16.48;4.50;;;8.10;63.40;;;;;;5033674;28;20379;-74
2020/12/21 08:41:52;;;;;;;11.47;3.93;;;8.20;62.30;;;;;;5045277;28;20396;-74
2020/12/21 08:44:21;;;;;;;14.80;3.58;;;8.30;62.00;;;;;;5044930;28;20398;-74
2020/12/21 08:46:48;;;;;;;13.07;4.20;;;8.30;62.80;;;;;;5033159;28;20379;-74
2020/12/21 08:49:14;;;;;;;13.48;3.90;;;8.30;62.30;;;;;;5033004;28;20391;-74
2020/12/21 08:51:40;;;;;;;10.52;3.90;;;8.30;62.20;;;;;;5033277;28;20819;-73
2020/12/21 08:54:06;;;;;;;10.13;3.65;;;8.30;62.40;;;;;;5033354;28;20494;-74
2020/12/21 08:56:31;;;;;;;14.23;4.20;;;8.50;61.30;;;;;;5032964;28;20451;-75
2020/12/21 08:58:57;;;;;;;9.97;3.70;;;8.50;61.50;;;;;;5032193;28;20749;-74
2020/12/21 09:01:22;;;;;;;14.60;4.13;;;8.50;61.30;;;;;;5015536;28;20387;-72
2020/12/21 09:03:48;;;;;;;14.10;4.00;;;8.50;61.40;;;;;;5014777;28;20892;-74
2020/12/21 09:06:18;;;;;;;11.20;3.70;;;8.70;59.50;;;;;;5032944;28;20402;-75
2020/12/21 09:08:44;;;;;;;18.15;3.90;;;8.70;59.50;;;;;;5032387;28;20405;-75
2020/12/21 09:11:09;;;;;;;12.38;3.80;;;8.70;58.90;;;;;;5033173;28;20965;-74
2020/12/21 09:13:35;;;;;;;13.87;4.10;;;8.80;58.70;;;;;;5031588;28;20780;-73
2020/12/21 09:16:01;;;;;;;11.27;3.70;;;8.70;59.50;;;;;;5033668;28;20378;-75
2020/12/21 09:18:27;;;;;;;11.23;4.10;;;8.80;58.70;;;;;;5033566;28;20415;-75
2020/12/21 09:20:52;;;;;;;9.20;4.00;;;8.80;58.90;;;;;;5034184;28;20433;-75
2020/12/21 09:23:18;;;;;;;21.83;4.00;;;8.90;58.10;;;;;;5016309;28;20836;-74
2020/12/21 09:25:43;;;;;;;10.52;3.42;;;8.90;58.30;;;;;;5033146;28;20954;-76
2020/12/21 09:28:09;;;;;;;9.85;3.45;;;8.90;58.20;;;;;;5033018;28;20437;-75
2020/12/21 09:30:35;;;;;;;11.07;4.25;;;9.00;57.90;;;;;;5033805;28;20426;-75
2020/12/21 09:33:04;;;;;;;13.45;4.25;;;9.10;57.10;;;;;;5033734;28;20445;-73
2020/12/21 09:35:30;;;;;;;11.10;3.25;;;9.10;56.80;;;;;;5031106;28;20417;-75
2020/12/21 09:37:55;;;;;;;11.88;3.85;;;9.10;56.80;;;;;;5032631;28;20764;-75
2020/12/21 09:40:21;;;;;;;12.68;3.20;;;9.20;57.40;;;;;;5031762;28;20784;-74
2020/12/21 09:42:47;;;;;;;12.02;3.85;;;9.20;56.70;;;;;;5033420;28;20880;-73
2020/12/21 09:45:12;;;;;;;10.80;3.25;;;9.20;57.00;;;;;;5033459;28;20470;-75
2020/12/21 09:47:38;;;;;;;5.97;3.67;;;9.20;57.10;;;;;;5032484;28;21047;-73
2020/12/21 09:50:05;;;;;;;13.30;3.70;;;9.20;57.20;;;;;;5033423;28;20726;-75
2020/12/21 09:52:30;;;;;;;15.85;4.30;;;9.20;58.40;;;;;;5033004;28;20553;-73
2020/12/21 09:54:56;;;;;;;6.50;3.20;;;9.20;58.40;;;;;;5033054;28;20391;-76
2020/12/21 09:57:22;;;;;;;11.32;3.80;;;9.10;58.00;;;;;;5032712;28;20403;-74
2020/12/21 09:59:47;;;;;;;13.23;3.78;;;9.20;58.20;;;;;;5032299;28;20396;-75
2020/12/21 10:02:13;;;;;;;10.93;3.37;;;9.20;57.20;;;;;;5033525;28;20411;-74
2020/12/21 10:04:38;;;;;;;10.03;3.60;;;9.20;57.40;;;;;;5032936;28;20399;-75
2020/12/21 10:07:04;;;;;;;8.60;3.30;;;9.30;57.60;;;;;;5032948;28;20445;-74
2020/12/21 10:09:29;;;;;;;8.87;3.60;;;9.30;57.50;;;;;;5031906;28;20486;-73
2020/12/21 10:11:55;;;;;;;10.70;3.67;;;9.40;57.00;;;;;;5031861;28;20395;-74
2020/12/21 10:14:20;;;;;;;9.50;3.60;;;9.40;56.80;;;;;;5031493;28;20395;-74
2020/12/21 10:16:50;;;;;;;11.10;3.70;;;9.50;56.20;;;;;;5032355;28;20413;-75
2020/12/21 10:19:16;;;;;;;9.98;3.65;;;9.50;56.30;;;;;;5032737;28;20476;-74
2020/12/21 10:21:41;;;;;;;10.63;3.90;;;9.60;55.40;;;;;;5013643;28;20427;-77
2020/12/21 10:24:07;;;;;;;11.90;3.93;;;9.70;55.10;;;;;;5031386;28;20808;-72
2020/12/21 10:26:38;;;;;;;17.20;4.43;;;9.80;54.80;;;;;;5031310;28;20387;-72
2020/12/21 10:29:04;;;;;;;14.57;3.60;;;9.90;54.60;;;;;;5031027;28;20490;-74
2020/12/21 10:31:29;;;;;;;12.55;3.75;;;10.10;52.00;;;;;;5031450;28;20458;-75
2020/12/21 10:33:55;;;;;;;13.60;3.85;;;10.00;52.70;;;;;;5031126;28;20879;-73
2020/12/21 10:36:20;;;;;;;13.00;3.95;;;10.00;51.90;;;;;;5031412;28;20383;-73
2020/12/21 10:38:47;;;;;;;12.93;4.03;;;10.00;52.50;;;;;;5013142;28;20397;-74
2020/12/21 10:41:13;;;;;;;16.33;3.90;;;10.00;52.70;;;;;;5031267;28;20402;-73
2020/12/21 10:43:38;;;;;;;13.43;3.60;;;10.00;52.50;;;;;;5030970;28;20403;-74
2020/12/21 10:46:04;;;;;;;10.00;3.88;;;10.00;54.20;;;;;;5031043;28;20490;-75
2020/12/21 10:48:29;;;;;;;7.77;3.80;;;10.00;53.70;;;;;;5030869;28;20383;-75
2020/12/21 10:50:55;;;;;;;11.73;3.83;;;10.00;53.40;;;;;;5011739;28;20862;-75
2020/12/21 10:53:21;;;;;;;9.07;3.80;;;10.10;54.10;;;;;;5011576;28;20396;-74
2020/12/21 10:55:47;;;;;;;14.73;3.83;;;10.20;51.80;;;;;;5029593;28;20395;-74
2020/12/21 10:58:13;;;;;;;15.53;3.80;;;10.20;53.20;;;;;;5030561;28;20933;-74
2020/12/21 11:00:38;;;;;;;16.37;4.20;;;10.30;52.60;;;;;;5020426;28;20445;-75
2020/12/21 11:03:05;;;;;;;15.20;3.80;;;10.30;53.00;;;;;;5030792;28;20490;-74
2020/12/21 11:05:30;;;;;;;14.50;3.78;;;10.40;53.20;;;;;;5030676;28;20750;-74
2020/12/21 11:07:56;;;;;;;16.27;4.25;;;10.50;52.60;;;;;;5030403;28;20391;-75
2020/12/21 11:10:22;;;;;;;15.80;4.40;;;10.60;51.00;;;;;;5012913;28;20493;-74
2020/12/21 11:12:48;;;;;;;19.35;4.20;;;10.50;51.20;;;;;;5030743;28;20489;-75
2020/12/21 11:15:13;;;;;;;8.73;4.03;;;10.50;52.40;;;;;;5030999;28;20449;-74
2020/12/21 11:17:39;;;;;;;8.60;3.37;;;10.50;51.70;;;;;;5030639;28;20423;-74
2020/12/21 11:20:04;;;;;;;10.37;3.97;;;10.50;51.50;;;;;;5030652;28;20403;-74
2020/12/21 11:22:30;;;;;;;9.63;3.90;;;10.50;51.80;;;;;;5030576;28;20379;-73
2020/12/21 11:24:56;;;;;;;11.83;3.87;;;10.50;52.00;;;;;;5030204;28;20387;-74
2020/12/21 11:27:22;;;;;;;14.90;4.65;;;10.30;53.20;;;;;;5030540;28;20926;-75
2020/12/21 11:29:48;;;;;;;13.30;3.53;;;10.40;53.30;;;;;;5029875;28;20470;-74
2020/12/21 11:32:14;;;;;;;8.50;3.73;;;10.20;54.50;;;;;;5030210;28;20397;-75
2020/12/21 11:34:39;;;;;;;12.53;3.77;;;10.20;55.60;;;;;;5029382;28;20498;-73
2020/12/21 11:37:05;;;;;;;12.43;4.63;;;10.20;56.00;;;;;;5030270;28;20827;-74
2020/12/21 11:39:30;;;;;;;12.70;4.30;;;10.20;57.10;;;;;;5032895;28;20878;-74
2020/12/21 11:41:56;;;;;;;9.27;4.20;;;10.10;58.10;;;;;;5033980;28;20391;-74
2020/12/21 11:44:21;;;;;;;17.30;4.80;;;10.00;59.40;;;;;;5016779;28;20407;-74
2020/12/21 11:46:47;;;;;;;18.60;5.30;;;9.90;61.60;;;;;;5033084;28;20434;-74
2020/12/21 11:49:12;;;;;;;11.37;4.00;;;9.90;63.00;;;;;;5031690;28;20389;-74
2020/12/21 11:51:38;;;;;;;12.80;4.87;;;10.00;62.30;;;;;;5030550;28;20406;-74
2020/12/21 11:54:03;;;;;;;13.23;4.60;;;10.10;61.90;;;;;;5031637;28;20389;-73
2020/12/21 11:56:29;;;;;;;14.98;4.95;;;10.00;62.20;;;;;;5031010;28;20452;-75
2020/12/21 11:58:54;;;;;;;10.43;4.50;;;10.00;62.60;;;;;;5032269;28;20405;-72
2020/12/21 12:01:20;;;;;;;12.60;4.63;;;10.10;62.20;;;;;;5033013;28;20437;-75
2020/12/21 12:03:46;;;;;;;13.82;4.60;;;10.10;62.20;;;;;;5030876;28;20407;-75
2020/12/21 12:06:12;;;;;;;12.60;4.85;;;10.10;63.40;;;;;;5030634;28;20438;-74
2020/12/21 12:08:37;;;;;;;13.75;4.53;;;10.20;62.40;;;;;;5031232;28;20486;-74
2020/12/21 12:11:06;;;;;;;10.33;4.73;;;10.20;63.20;;;;;;5031754;28;20379;-73
2020/12/21 12:13:31;;;;;;;14.40;4.95;;;10.20;62.50;;;;;;5035521;28;20383;-74
2020/12/21 12:15:57;;;;;;;12.93;4.70;;;10.20;61.70;;;;;;5036262;28;20398;-73
2020/12/21 12:18:22;;;;;;;11.80;5.10;;;10.30;61.90;;;;;;5036148;28;20410;-74
2020/12/21 12:20:48;;;;;;;10.60;5.07;;;10.30;62.00;;;;;;5036995;28;20398;-75
2020/12/21 12:23:17;;;;;;;9.10;5.47;;;10.20;60.80;;;;;;5037602;28;20379;-72
2020/12/21 12:25:42;;;;;;;13.45;5.18;;;10.20;62.60;;;;;;5037983;28;20391;-74
2020/12/21 12:28:08;;;;;;;13.70;4.30;;;10.20;63.20;;;;;;5037377;28;20741;-73
2020/12/21 12:30:33;;;;;;;10.00;4.73;;;10.10;62.90;;;;;;5038284;28;20398;-74
2020/12/21 12:32:59;;;;;;;8.63;4.60;;;10.20;62.90;;;;;;5036352;28;20403;-79
2020/12/21 12:35:24;;;;;;;14.30;4.80;;;10.20;64.20;;;;;;5035549;28;20406;-73
2020/12/21 12:37:50;;;;;;;10.93;4.80;;;10.10;65.80;;;;;;5034086;28;20467;-73
2020/12/21 12:40:15;;;;;;;11.73;4.70;;;10.00;65.70;;;;;;5034264;28;20920;-74
2020/12/21 12:42:41;;;;;;;11.75;5.30;;;10.00;66.70;;;;;;5016745;28;20403;-73
2020/12/21 12:45:07;;;;;;;8.90;4.60;;;9.90;67.70;;;;;;5035468;28;20407;-73